sensor_id;sensor_type;location;lat;lon;timestamp;pressure;altitude;pressure_sealevel;temperature;humidity
71567;BME280;59403;47.456;19.120;2022-11-20T00:01:24;100119.84;;;1.64;95.01
71567;BME280;59403;47.456;19.120;2022-11-20T00:03:53;100120.41;;;1.56;94.86
71567;BME280;59403;47.456;19.120;2022-11-20T00:06:20;100114.00;;;1.60;95.51
71567;BME280;59403;47.456;19.120;2022-11-20T00:08:50;100120.41;;;1.56;95.09
71567;BME280;59403;47.456;19.120;2022-11-20T00:11:18;100118.53;;;1.46;95.08
71567;BME280;59403;47.456;19.120;2022-11-20T00:13:47;100115.81;;;1.47;95.70
71567;BME280;59403;47.456;19.120;2022-11-20T00:16:16;100112.19;;;1.37;95.36
71567;BME280;59403;47.456;19.120;2022-11-20T00:18:43;100121.44;;;1.41;95.71
71567;BME280;59403;47.456;19.120;2022-11-20T00:21:12;100131.47;;;1.47;96.54
71567;BME280;59403;47.456;19.120;2022-11-20T00:23:39;100132.19;;;1.49;96.23
71567;BME280;59403;47.456;19.120;2022-11-20T00:26:10;100143.16;;;1.42;95.39
71567;BME280;59403;47.456;19.120;2022-11-20T00:28:38;100160.16;;;1.47;95.40
71567;BME280;59403;47.456;19.120;2022-11-20T00:31:06;100165.59;;;1.44;95.27
71567;BME280;59403;47.456;19.120;2022-11-20T00:33:33;100140.12;;;1.48;95.70
71567;BME280;59403;47.456;19.120;2022-11-20T00:36:01;100138.87;;;1.41;95.93
71567;BME280;59403;47.456;19.120;2022-11-20T00:38:29;100149.72;;;1.47;96.08
71567;BME280;59403;47.456;19.120;2022-11-20T00:40:57;100162.22;;;1.55;96.24
71567;BME280;59403;47.456;19.120;2022-11-20T00:43:26;100166.41;;;1.57;96.45
71567;BME280;59403;47.456;19.120;2022-11-20T00:45:56;100151.78;;;1.55;96.25
71567;BME280;59403;47.456;19.120;2022-11-20T00:48:23;100149.72;;;1.47;97.02
71567;BME280;59403;47.456;19.120;2022-11-20T00:50:50;100143.66;;;1.34;97.83
71567;BME280;59403;47.456;19.120;2022-11-20T00:53:17;100132.84;;;1.40;97.05
71567;BME280;59403;47.456;19.120;2022-11-20T00:55:52;100121.78;;;1.37;97.21
71567;BME280;59403;47.456;19.120;2022-11-20T00:58:19;100122.06;;;1.32;97.32
71567;BME280;59403;47.456;19.120;2022-11-20T01:00:48;100125.75;;;1.30;97.11
71567;BME280;59403;47.456;19.120;2022-11-20T01:03:15;100127.00;;;1.24;97.14
71567;BME280;59403;47.456;19.120;2022-11-20T01:05:42;100126.16;;;1.24;97.10
71567;BME280;59403;47.456;19.120;2022-11-20T01:08:09;100124.38;;;1.24;97.48
71567;BME280;59403;47.456;19.120;2022-11-20T01:10:36;100129.72;;;1.23;97.63
71567;BME280;59403;47.456;19.120;2022-11-20T01:13:03;100133.97;;;1.24;98.16
71567;BME280;59403;47.456;19.120;2022-11-20T01:15:49;100132.94;;;1.13;97.88
71567;BME280;59403;47.456;19.120;2022-11-20T01:18:16;100122.09;;;1.20;98.55
71567;BME280;59403;47.456;19.120;2022-11-20T01:20:43;100128.22;;;1.18;99.06
71567;BME280;59403;47.456;19.120;2022-11-20T01:23:10;100131.06;;;1.15;99.83
71567;BME280;59403;47.456;19.120;2022-11-20T01:25:36;100133.66;;;1.15;100.00
71567;BME280;59403;47.456;19.120;2022-11-20T01:28:03;100125.22;;;1.12;100.00
71567;BME280;59403;47.456;19.120;2022-11-20T01:30:30;100132.19;;;1.11;100.00
71567;BME280;59403;47.456;19.120;2022-11-20T01:32:58;100128.78;;;1.11;100.00
71567;BME280;59403;47.456;19.120;2022-11-20T01:35:25;100135.75;;;1.10;100.00
71567;BME280;59403;47.456;19.120;2022-11-20T01:37:52;100128.97;;;1.21;100.00
71567;BME280;59403;47.456;19.120;2022-11-20T01:40:19;100120.75;;;1.14;100.00
71567;BME280;59403;47.456;19.120;2022-11-20T01:42:52;100121.16;;;1.21;100.00
71567;BME280;59403;47.456;19.120;2022-11-20T01:46:03;100129.50;;;1.26;100.00
71567;BME280;59403;47.456;19.120;2022-11-20T01:48:35;100127.59;;;1.15;100.00
71567;BME280;59403;47.456;19.120;2022-11-20T01:51:04;100119.38;;;1.21;100.00
71567;BME280;59403;47.456;19.120;2022-11-20T01:53:35;100116.66;;;1.23;100.00
71567;BME280;59403;47.456;19.120;2022-11-20T01:56:05;100119.38;;;1.21;100.00
71567;BME280;59403;47.456;19.120;2022-11-20T01:58:35;100117.81;;;1.18;100.00
71567;BME280;59403;47.456;19.120;2022-11-20T11:58:08;100008.16;;;5.35;96.46
71567;BME280;59403;47.456;19.120;2022-11-20T12:00:41;100004.72;;;5.35;96.05
71567;BME280;59403;47.456;19.120;2022-11-20T12:03:15;100009.97;;;5.44;96.00
71567;BME280;59403;47.456;19.120;2022-11-20T12:05:47;100021.34;;;5.54;96.42
71567;BME280;59403;47.456;19.120;2022-11-20T12:08:21;100016.78;;;5.56;94.84
71567;BME280;59403;47.456;19.120;2022-11-20T12:16:14;100002.75;;;5.76;93.84
71567;BME280;59403;47.456;19.120;2022-11-20T12:18:43;99995.56;;;5.78;93.31
71567;BME280;59403;47.456;19.120;2022-11-20T12:21:19;99996.09;;;5.82;94.06
71567;BME280;59403;47.456;19.120;2022-11-20T12:24:00;99992.97;;;5.88;94.04
71567;BME280;59403;47.456;19.120;2022-11-20T12:26:42;100001.53;;;6.00;92.27
71567;BME280;59403;47.456;19.120;2022-11-20T12:29:21;99995.31;;;6.01;92.42
71567;BME280;59403;47.456;19.120;2022-11-20T12:34:51;99987.31;;;6.02;90.87
71567;BME280;59403;47.456;19.120;2022-11-20T12:37:29;99986.75;;;5.99;91.91
71567;BME280;59403;47.456;19.120;2022-11-20T12:40:02;99997.41;;;5.97;91.96
71567;BME280;59403;47.456;19.120;2022-11-20T12:42:43;100004.88;;;5.92;90.82
71567;BME280;59403;47.456;19.120;2022-11-20T12:45:50;100004.72;;;5.94;90.20
71567;BME280;59403;47.456;19.120;2022-11-20T12:49:02;100008.59;;;5.90;90.35
71567;BME280;59403;47.456;19.120;2022-11-20T12:57:28;100014.97;;;5.87;89.90
71567;BME280;59403;47.456;19.120;2022-11-20T13:00:08;100009.97;;;5.84;90.45
71567;BME280;59403;47.456;19.120;2022-11-20T13:02:52;100013.69;;;5.82;90.87
71567;BME280;59403;47.456;19.120;2022-11-20T13:05:31;100011.03;;;5.82;91.00
71567;BME280;59403;47.456;19.120;2022-11-20T13:08:02;100012.00;;;5.80;91.80
71567;BME280;59403;47.456;19.120;2022-11-20T13:10:33;100001.34;;;5.82;91.85
71567;BME280;59403;47.456;19.120;2022-11-20T13:13:10;100012.72;;;5.83;92.42
71567;BME280;59403;47.456;19.120;2022-11-20T13:15:47;100011.78;;;5.84;90.87
71567;BME280;59403;47.456;19.120;2022-11-20T13:18:18;100013.13;;;5.88;91.15
71567;BME280;59403;47.456;19.120;2022-11-20T13:20:46;100012.44;;;5.86;91.66
71567;BME280;59403;47.456;19.120;2022-11-20T13:23:23;100004.44;;;5.87;92.04
71567;BME280;59403;47.456;19.120;2022-11-20T13:28:30;100001.12;;;5.85;92.67
71567;BME280;59403;47.456;19.120;2022-11-20T13:30:59;100000.97;;;5.87;91.96
71567;BME280;59403;47.456;19.120;2022-11-20T13:33:30;99998.50;;;5.85;91.39
71567;BME280;59403;47.456;19.120;2022-11-20T13:36:00;99993.37;;;5.84;91.83
71567;BME280;59403;47.456;19.120;2022-11-20T13:38:28;99989.19;;;5.81;90.86
71567;BME280;59403;47.456;19.120;2022-11-20T13:40:57;99988.34;;;5.80;89.75
71567;BME280;59403;47.456;19.120;2022-11-20T13:43:35;99978.69;;;5.81;90.96
71567;BME280;59403;47.456;19.120;2022-11-20T13:46:05;99972.72;;;5.79;91.36
71567;BME280;59403;47.456;19.120;2022-11-20T13:48:38;99968.84;;;5.73;91.22
71567;BME280;59403;47.456;19.120;2022-11-20T13:51:23;99972.88;;;5.68;91.63
71567;BME280;59403;47.456;19.120;2022-11-20T13:57:01;99967.03;;;5.55;92.53
71567;BME280;59403;47.456;19.120;2022-11-20T13:59:46;99968.38;;;5.49;91.44
71567;BME280;59403;47.456;19.120;2022-11-20T14:02:21;99967.97;;;5.44;91.85
71567;BME280;59403;47.456;19.120;2022-11-20T14:04:52;99962.28;;;5.39;92.12
71567;BME280;59403;47.456;19.120;2022-11-20T14:07:22;99969.59;;;5.36;93.31
71567;BME280;59403;47.456;19.120;2022-11-20T14:09:52;99970.03;;;5.31;94.22
71567;BME280;59403;47.456;19.120;2022-11-20T14:12:20;99968.34;;;5.30;93.35
71567;BME280;59403;47.456;19.120;2022-11-20T14:14:49;99968.91;;;5.24;95.08
71567;BME280;59403;47.456;19.120;2022-11-20T14:17:19;99967.34;;;5.22;94.53
71567;BME280;59403;47.456;19.120;2022-11-20T14:19:47;99958.62;;;5.21;94.01
71567;BME280;59403;47.456;19.120;2022-11-20T14:22:19;99966.78;;;5.18;94.10
71567;BME280;59403;47.456;19.120;2022-11-20T14:24:46;99974.09;;;5.15;94.71
71567;BME280;59403;47.456;19.120;2022-11-20T14:27:15;99981.41;;;5.11;95.20
71567;BME280;59403;47.456;19.120;2022-11-20T14:29:44;99979.19;;;5.07;95.55
71567;BME280;59403;47.456;19.120;2022-11-20T14:32:15;99991.47;;;5.06;95.90
71567;BME280;59403;47.456;19.120;2022-11-20T14:34:45;99988.97;;;5.05;95.91
71567;BME280;59403;47.456;19.120;2022-11-20T14:37:18;99996.00;;;5.04;95.13
71567;BME280;59403;47.456;19.120;2022-11-20T14:39:50;99990.19;;;5.01;96.14
71567;BME280;59403;47.456;19.120;2022-11-20T14:42:20;99988.81;;;4.97;96.23
71567;BME280;59403;47.456;19.120;2022-11-20T14:44:48;99999.69;;;4.92;96.95
71567;BME280;59403;47.456;19.120;2022-11-20T14:47:19;100005.22;;;4.89;97.66
71567;BME280;59403;47.456;19.120;2022-11-20T14:49:49;100003.09;;;4.83;98.23
71567;BME280;59403;47.456;19.120;2022-11-20T14:52:18;99996.47;;;4.79;98.31
71567;BME280;59403;47.456;19.120;2022-11-20T14:54:47;100000.31;;;4.75;99.19
71567;BME280;59403;47.456;19.120;2022-11-20T14:57:24;100000.31;;;4.75;99.04
71567;BME280;59403;47.456;19.120;2022-11-20T14:59:51;99998.88;;;4.71;98.90
71567;BME280;59403;47.456;19.120;2022-11-20T15:02:19;100009.66;;;4.68;99.11
71567;BME280;59403;47.456;19.120;2022-11-20T15:04:47;100012.53;;;4.65;98.99
71567;BME280;59403;47.456;19.120;2022-11-20T15:07:23;100013.59;;;4.62;99.07
71567;BME280;59403;47.456;19.120;2022-11-20T15:10:00;100013.28;;;4.56;100.00
71567;BME280;59403;47.456;19.120;2022-11-20T15:12:29;100015.59;;;4.49;100.00
71567;BME280;59403;47.456;19.120;2022-11-20T15:14:56;100007.16;;;4.46;100.00
71567;BME280;59403;47.456;19.120;2022-11-20T15:17:24;100014.72;;;4.39;100.00
71567;BME280;59403;47.456;19.120;2022-11-20T15:19:51;100018.53;;;4.35;100.00
71567;BME280;59403;47.456;19.120;2022-11-20T15:22:18;100026.09;;;4.29;100.00
71567;BME280;59403;47.456;19.120;2022-11-20T15:24:45;100027.53;;;4.22;100.00
71567;BME280;59403;47.456;19.120;2022-11-20T15:27:12;100027.09;;;4.17;100.00
71567;BME280;59403;47.456;19.120;2022-11-20T15:29:41;100019.59;;;4.12;100.00
71567;BME280;59403;47.456;19.120;2022-11-20T15:32:08;100021.03;;;4.05;100.00
71567;BME280;59403;47.456;19.120;2022-11-20T15:34:36;100023.22;;;4.00;100.00
71567;BME280;59403;47.456;19.120;2022-11-20T15:37:02;100022.75;;;3.95;100.00
71567;BME280;59403;47.456;19.120;2022-11-20T15:39:29;100023.13;;;3.91;100.00
71567;BME280;59403;47.456;19.120;2022-11-20T15:41:56;100023.63;;;3.85;100.00
71567;BME280;59403;47.456;19.120;2022-11-20T15:44:23;100024.72;;;3.82;100.00
71567;BME280;59403;47.456;19.120;2022-11-20T15:46:51;100028.41;;;3.80;100.00
71567;BME280;59403;47.456;19.120;2022-11-20T15:49:18;100034.03;;;3.75;100.00
71567;BME280;59403;47.456;19.120;2022-11-20T15:51:49;100034.38;;;3.71;100.00
71567;BME280;59403;47.456;19.120;2022-11-20T15:54:19;100023.31;;;3.67;100.00
71567;BME280;59403;47.456;19.120;2022-11-20T15:56:47;100029.03;;;3.61;100.00
71567;BME280;59403;47.456;19.120;2022-11-20T15:59:14;100032.00;;;3.57;100.00
71567;BME280;59403;47.456;19.120;2022-11-20T16:01:41;100018.47;;;3.52;100.00
71567;BME280;59403;47.456;19.120;2022-11-20T16:04:12;100020.72;;;3.45;100.00
71567;BME280;59403;47.456;19.120;2022-11-20T16:06:39;100021.09;;;3.40;100.00
71567;BME280;59403;47.456;19.120;2022-11-20T16:09:06;100017.53;;;3.41;100.00
71567;BME280;59403;47.456;19.120;2022-11-20T16:11:34;100030.72;;;3.40;100.00
71567;BME280;59403;47.456;19.120;2022-11-20T16:14:02;100027.28;;;3.39;100.00
71567;BME280;59403;47.456;19.120;2022-11-20T16:16:46;100029.19;;;3.37;100.00
71567;BME280;59403;47.456;19.120;2022-11-20T16:19:15;100025.03;;;3.35;100.00
71567;BME280;59403;47.456;19.120;2022-11-20T16:21:43;100021.09;;;3.29;100.00
71567;BME280;59403;47.456;19.120;2022-11-20T16:24:12;100012.53;;;3.27;100.00
71567;BME280;59403;47.456;19.120;2022-11-20T16:26:40;100016.81;;;3.28;100.00
71567;BME280;59403;47.456;19.120;2022-11-20T16:29:07;100012.53;;;3.27;100.00
71567;BME280;59403;47.456;19.120;2022-11-20T16:31:35;100020.75;;;3.23;100.00
71567;BME280;59403;47.456;19.120;2022-11-20T16:34:04;100011.34;;;3.20;100.00
71567;BME280;59403;47.456;19.120;2022-11-20T16:36:33;100018.97;;;3.23;100.00
71567;BME280;59403;47.456;19.120;2022-11-20T16:39:02;100015.53;;;3.23;100.00
71567;BME280;59403;47.456;19.120;2022-11-20T16:41:31;100010.41;;;3.21;100.00
71567;BME280;59403;47.456;19.120;2022-11-20T16:44:00;100007.22;;;3.18;100.00
71567;BME280;59403;47.456;19.120;2022-11-20T16:46:29;100005.66;;;3.15;100.00
71567;BME280;59403;47.456;19.120;2022-11-20T16:48:57;100005.91;;;3.12;100.00
71567;BME280;59403;47.456;19.120;2022-11-20T16:51:25;100003.28;;;3.12;100.00
71567;BME280;59403;47.456;19.120;2022-11-20T16:53:54;100007.91;;;3.09;100.00
71567;BME280;59403;47.456;19.120;2022-11-20T16:56:22;100008.12;;;3.06;100.00
71567;BME280;59403;47.456;19.120;2022-11-20T16:58:52;100001.62;;;3.00;100.00
71567;BME280;59403;47.456;19.120;2022-11-20T17:01:20;100008.50;;;3.01;100.00
71567;BME280;59403;47.456;19.120;2022-11-20T17:03:53;100004.44;;;2.97;100.00
71567;BME280;59403;47.456;19.120;2022-11-20T17:06:22;100001.16;;;2.95;100.00
71567;BME280;59403;47.456;19.120;2022-11-20T17:08:50;99993.53;;;2.92;100.00
71567;BME280;59403;47.456;19.120;2022-11-20T17:11:18;99993.03;;;2.87;100.00
71567;BME280;59403;47.456;19.120;2022-11-20T17:13:46;99991.72;;;2.82;100.00
71567;BME280;59403;47.456;19.120;2022-11-20T17:16:14;99984.25;;;2.77;100.00
71567;BME280;59403;47.456;19.120;2022-11-20T17:18:42;99981.41;;;2.69;100.00
71567;BME280;59403;47.456;19.120;2022-11-20T17:21:10;99982.22;;;2.70;100.00
71567;BME280;59403;47.456;19.120;2022-11-20T17:23:38;99974.62;;;2.67;100.00
71567;BME280;59403;47.456;19.120;2022-11-20T17:26:07;99964.41;;;2.64;100.00
71567;BME280;59403;47.456;19.120;2022-11-20T17:28:37;99970.69;;;2.61;100.00
71567;BME280;59403;47.456;19.120;2022-11-20T17:31:06;99973.78;;;2.55;100.00
71567;BME280;59403;47.456;19.120;2022-11-20T17:33:34;99963.78;;;2.49;100.00
71567;BME280;59403;47.456;19.120;2022-11-20T17:36:02;99969.50;;;2.43;100.00
71567;BME280;59403;47.456;19.120;2022-11-20T17:38:29;99969.13;;;2.48;100.00
71567;BME280;59403;47.456;19.120;2022-11-20T17:41:01;99960.56;;;2.46;100.00
71567;BME280;59403;47.456;19.120;2022-11-20T17:43:29;99945.00;;;2.44;100.00
71567;BME280;59403;47.456;19.120;2022-11-20T17:45:58;99955.59;;;2.43;100.00
71567;BME280;59403;47.456;19.120;2022-11-20T17:48:25;99953.22;;;2.40;100.00
71567;BME280;59403;47.456;19.120;2022-11-20T17:50:58;99952.50;;;2.38;100.00
71567;BME280;59403;47.456;19.120;2022-11-20T17:53:25;99951.03;;;2.33;100.00
71567;BME280;59403;47.456;19.120;2022-11-20T17:55:55;99962.66;;;2.29;100.00
71567;BME280;59403;47.456;19.120;2022-11-20T17:58:40;99957.69;;;2.26;100.00
71567;BME280;59403;47.456;19.120;2022-11-20T18:01:09;99959.56;;;2.24;100.00
71567;BME280;59403;47.456;19.120;2022-11-20T18:03:36;99958.97;;;2.21;100.00
71567;BME280;59403;47.456;19.120;2022-11-20T18:06:07;99962.53;;;2.20;100.00
71567;BME280;59403;47.456;19.120;2022-11-20T18:08:35;99955.63;;;2.19;100.00
71567;BME280;59403;47.456;19.120;2022-11-20T18:11:09;99958.59;;;2.14;100.00
71567;BME280;59403;47.456;19.120;2022-11-20T18:13:36;99977.13;;;2.11;100.00
71567;BME280;59403;47.456;19.120;2022-11-20T18:16:21;99977.44;;;2.07;100.00
71567;BME280;59403;47.456;19.120;2022-11-20T18:18:48;99985.78;;;2.12;100.00
71567;BME280;59403;47.456;19.120;2022-11-20T18:21:15;99981.75;;;2.08;100.00
71567;BME280;59403;47.456;19.120;2022-11-20T18:23:42;99992.41;;;2.05;100.00
71567;BME280;59403;47.456;19.120;2022-11-20T18:26:09;100006.53;;;2.02;100.00
71567;BME280;59403;47.456;19.120;2022-11-20T18:28:36;100002.34;;;2.00;100.00
71567;BME280;59403;47.456;19.120;2022-11-20T18:31:04;100007.69;;;1.98;100.00
71567;BME280;59403;47.456;19.120;2022-11-20T18:33:33;100013.25;;;1.94;100.00
71567;BME280;59403;47.456;19.120;2022-11-20T18:36:08;100009.06;;;1.91;100.00
71567;BME280;59403;47.456;19.120;2022-11-20T18:38:35;100026.66;;;1.89;100.00
71567;BME280;59403;47.456;19.120;2022-11-20T18:41:05;100026.53;;;1.91;100.00
71567;BME280;59403;47.456;19.120;2022-11-20T18:43:32;100023.31;;;1.87;100.00
71567;BME280;59403;47.456;19.120;2022-11-20T18:46:16;100031.53;;;1.94;100.00
71567;BME280;59403;47.456;19.120;2022-11-20T18:48:47;100031.41;;;1.95;100.00
71567;BME280;59403;47.456;19.120;2022-11-20T18:51:17;100034.03;;;1.95;100.00
71567;BME280;59403;47.456;19.120;2022-11-20T18:53:44;100022.72;;;1.95;100.00
71567;BME280;59403;47.456;19.120;2022-11-20T18:56:11;100021.56;;;1.99;100.00
71567;BME280;59403;47.456;19.120;2022-11-20T18:58:38;100031.41;;;1.95;100.00
71567;BME280;59403;47.456;19.120;2022-11-20T19:01:06;100038.28;;;1.96;100.00
71567;BME280;59403;47.456;19.120;2022-11-20T19:03:33;100034.13;;;1.94;100.00
71567;BME280;59403;47.456;19.120;2022-11-20T19:06:02;100039.59;;;1.91;100.00
71567;BME280;59403;47.456;19.120;2022-11-20T19:08:30;100032.69;;;1.90;100.00
71567;BME280;59403;47.456;19.120;2022-11-20T19:11:04;100028.72;;;1.84;100.00
71567;BME280;59403;47.456;19.120;2022-11-20T19:13:34;100025.62;;;1.79;100.00
71567;BME280;59403;47.456;19.120;2022-11-20T19:16:02;100025.00;;;1.76;100.00
71567;BME280;59403;47.456;19.120;2022-11-20T19:18:29;100031.91;;;1.77;100.00
71567;BME280;59403;47.456;19.120;2022-11-20T19:20:55;100019.19;;;1.72;100.00
71567;BME280;59403;47.456;19.120;2022-11-20T19:23:24;100034.03;;;1.72;100.00
71567;BME280;59403;47.456;19.120;2022-11-20T19:25:51;100029.00;;;1.69;100.00
71567;BME280;59403;47.456;19.120;2022-11-20T19:28:17;100027.56;;;1.65;100.00
71567;BME280;59403;47.456;19.120;2022-11-20T19:30:44;100016.81;;;1.69;100.00
71567;BME280;59403;47.456;19.120;2022-11-20T19:33:11;100004.81;;;1.67;100.00
71567;BME280;59403;47.456;19.120;2022-11-20T19:35:38;99997.06;;;1.65;100.00
71567;BME280;59403;47.456;19.120;2022-11-20T19:38:05;100004.62;;;1.57;100.00
71567;BME280;59403;47.456;19.120;2022-11-20T19:40:33;100003.28;;;1.52;100.00
71567;BME280;59403;47.456;19.120;2022-11-20T19:43:00;100003.75;;;1.46;100.00
71567;BME280;59403;47.456;19.120;2022-11-20T19:45:28;100000.28;;;1.45;100.00
71567;BME280;59403;47.456;19.120;2022-11-20T19:47:56;99997.78;;;1.44;100.00
71567;BME280;59403;47.456;19.120;2022-11-20T19:50:24;99990.38;;;1.38;100.00
71567;BME280;59403;47.456;19.120;2022-11-20T19:52:51;99986.66;;;1.29;100.00
71567;BME280;59403;47.456;19.120;2022-11-20T19:55:18;99998.06;;;1.28;100.00
71567;BME280;59403;47.456;19.120;2022-11-20T19:57:46;99990.34;;;1.27;100.00
71567;BME280;59403;47.456;19.120;2022-11-20T20:00:14;99988.03;;;1.22;100.00
71567;BME280;59403;47.456;19.120;2022-11-20T20:02:41;99987.41;;;1.18;100.00
71567;BME280;59403;47.456;19.120;2022-11-20T20:05:08;99985.53;;;1.21;100.00
71567;BME280;59403;47.456;19.120;2022-11-20T20:07:35;99996.59;;;1.24;100.00
71567;BME280;59403;47.456;19.120;2022-11-20T20:10:05;100000.25;;;1.22;100.00
71567;BME280;59403;47.456;19.120;2022-11-20T20:12:32;99998.59;;;1.21;100.00
71567;BME280;59403;47.456;19.120;2022-11-20T20:15:00;99979.28;;;1.23;100.00
71567;BME280;59403;47.456;19.120;2022-11-20T20:17:27;99976.25;;;1.16;100.00
71567;BME280;59403;47.456;19.120;2022-11-20T20:19:54;99971.03;;;1.16;100.00
71567;BME280;59403;47.456;19.120;2022-11-20T20:22:20;99970.44;;;1.13;100.00
71567;BME280;59403;47.456;19.120;2022-11-20T20:24:47;99973.88;;;1.13;100.00
71567;BME280;59403;47.456;19.120;2022-11-20T20:27:16;99969.38;;;1.15;100.00
71567;BME280;59403;47.456;19.120;2022-11-20T20:29:43;99964.06;;;1.17;100.00
71567;BME280;59403;47.456;19.120;2022-11-20T20:32:11;99965.22;;;1.13;100.00
71567;BME280;59403;47.456;19.120;2022-11-20T20:34:38;99960.84;;;1.13;100.00
71567;BME280;59403;47.456;19.120;2022-11-20T20:37:05;99958.69;;;1.07;100.00
71567;BME280;59403;47.456;19.120;2022-11-20T20:39:31;99969.31;;;1.04;100.00
71567;BME280;59403;47.456;19.120;2022-11-20T20:41:58;99967.03;;;1.00;100.00
71567;BME280;59403;47.456;19.120;2022-11-20T20:44:25;99966.62;;;0.93;100.00
71567;BME280;59403;47.456;19.120;2022-11-20T20:47:11;99952.34;;;0.99;100.00
71567;BME280;59403;47.456;19.120;2022-11-20T20:49:38;99964.53;;;0.98;100.00
71567;BME280;59403;47.456;19.120;2022-11-20T20:52:07;99971.41;;;0.99;100.00
71567;BME280;59403;47.456;19.120;2022-11-20T20:54:34;99973.19;;;0.99;100.00
71567;BME280;59403;47.456;19.120;2022-11-20T20:57:01;99970.66;;;0.97;100.00
71567;BME280;59403;47.456;19.120;2022-11-20T20:59:28;99973.91;;;1.01;100.00
71567;BME280;59403;47.456;19.120;2022-11-20T21:01:55;99971.28;;;1.01;100.00
71567;BME280;59403;47.456;19.120;2022-11-20T21:04:24;99965.25;;;1.00;100.00
71567;BME280;59403;47.456;19.120;2022-11-20T21:06:51;99955.66;;;1.01;100.00
71567;BME280;59403;47.456;19.120;2022-11-20T21:09:17;99973.09;;;1.00;100.00
71567;BME280;59403;47.456;19.120;2022-11-20T21:11:45;99977.87;;;0.94;100.00
71567;BME280;59403;47.456;19.120;2022-11-20T21:14:12;99968.72;;;0.88;100.00
71567;BME280;59403;47.456;19.120;2022-11-20T21:16:39;99984.44;;;0.87;100.00
71567;BME280;59403;47.456;19.120;2022-11-20T21:19:09;99973.31;;;0.85;100.00
71567;BME280;59403;47.456;19.120;2022-11-20T21:21:37;99974.25;;;0.84;100.00
71567;BME280;59403;47.456;19.120;2022-11-20T21:24:09;99976.03;;;0.83;100.00
71567;BME280;59403;47.456;19.120;2022-11-20T21:26:36;99977.91;;;0.81;100.00
71567;BME280;59403;47.456;19.120;2022-11-20T21:29:03;99977.91;;;0.81;100.00
71567;BME280;59403;47.456;19.120;2022-11-20T21:31:30;99979.66;;;0.81;100.00
71567;BME280;59403;47.456;19.120;2022-11-20T21:33:57;99979.56;;;0.82;100.00
71567;BME280;59403;47.456;19.120;2022-11-20T21:36:26;99983.75;;;0.85;100.00
71567;BME280;59403;47.456;19.120;2022-11-20T21:38:55;99971.41;;;0.87;100.00
71567;BME280;59403;47.456;19.120;2022-11-20T21:41:24;99962.44;;;0.91;100.00
71567;BME280;59403;47.456;19.120;2022-11-20T21:43:52;99962.06;;;0.84;100.00
71567;BME280;59403;47.456;19.120;2022-11-20T21:46:19;99973.62;;;0.80;100.00
71567;BME280;59403;47.456;19.120;2022-11-20T21:48:46;99981.75;;;0.76;100.00
71567;BME280;59403;47.456;19.120;2022-11-20T21:51:14;99980.91;;;0.75;100.00
71567;BME280;59403;47.456;19.120;2022-11-20T21:53:42;99972.59;;;0.70;100.00
71567;BME280;59403;47.456;19.120;2022-11-20T21:56:12;99970.09;;;0.69;100.00
71567;BME280;59403;47.456;19.120;2022-11-20T21:58:39;99972.91;;;0.66;100.00
71567;BME280;59403;47.456;19.120;2022-11-20T22:01:07;99966.88;;;0.65;100.00
71567;BME280;59403;47.456;19.120;2022-11-20T22:03:34;99967.09;;;0.62;100.00
71567;BME280;59403;47.456;19.120;2022-11-20T22:06:01;99969.59;;;0.64;100.00
71567;BME280;59403;47.456;19.120;2022-11-20T22:08:28;99965.50;;;0.60;100.00
71567;BME280;59403;47.456;19.120;2022-11-20T22:10:57;99971.22;;;0.65;100.00
71567;BME280;59403;47.456;19.120;2022-11-20T22:13:26;99954.69;;;0.66;100.00
71567;BME280;59403;47.456;19.120;2022-11-20T22:16:11;99952.88;;;0.66;100.00
71567;BME280;59403;47.456;19.120;2022-11-20T22:18:41;99954.97;;;0.61;100.00
71567;BME280;59403;47.456;19.120;2022-11-20T22:21:09;99942.16;;;0.58;100.00
71567;BME280;59403;47.456;19.120;2022-11-20T22:23:37;99935.94;;;0.61;100.00
71567;BME280;59403;47.456;19.120;2022-11-20T22:26:04;99933.94;;;0.64;100.00
71567;BME280;59403;47.456;19.120;2022-11-20T22:28:33;99938.09;;;0.67;100.00
71567;BME280;59403;47.456;19.120;2022-11-20T22:31:02;99930.28;;;0.67;100.00
71567;BME280;59403;47.456;19.120;2022-11-20T22:33:30;99936.94;;;0.71;100.00
71567;BME280;59403;47.456;19.120;2022-11-20T22:36:01;99932.56;;;0.71;100.00
71567;BME280;59403;47.456;19.120;2022-11-20T22:38:28;99934.97;;;0.74;100.00
71567;BME280;59403;47.456;19.120;2022-11-20T22:41:00;99931.63;;;0.72;100.00
71567;BME280;59403;47.456;19.120;2022-11-20T22:43:27;99926.72;;;0.68;100.00
71567;BME280;59403;47.456;19.120;2022-11-20T22:46:03;99927.06;;;0.63;100.00
71567;BME280;59403;47.456;19.120;2022-11-20T22:48:31;99918.22;;;0.66;100.00
71567;BME280;59403;47.456;19.120;2022-11-20T22:51:02;99912.16;;;0.65;100.00
71567;BME280;59403;47.456;19.120;2022-11-20T22:53:29;99912.03;;;0.67;100.00
71567;BME280;59403;47.456;19.120;2022-11-20T22:55:56;99911.00;;;0.69;100.00
71567;BME280;59403;47.456;19.120;2022-11-20T22:58:23;99912.66;;;0.70;100.00
71567;BME280;59403;47.456;19.120;2022-11-20T23:00:50;99913.69;;;0.68;100.00
71567;BME280;59403;47.456;19.120;2022-11-20T23:03:19;99906.00;;;0.66;100.00
71567;BME280;59403;47.456;19.120;2022-11-20T23:05:46;99907.06;;;0.64;100.00
71567;BME280;59403;47.456;19.120;2022-11-20T23:08:13;99904.56;;;0.62;100.00
71567;BME280;59403;47.456;19.120;2022-11-20T23:10:40;99904.44;;;0.64;100.00
71567;BME280;59403;47.456;19.120;2022-11-20T23:13:06;99909.66;;;0.64;100.00
71567;BME280;59403;47.456;19.120;2022-11-20T23:15:33;99901.34;;;0.59;100.00
71567;BME280;59403;47.456;19.120;2022-11-20T23:18:01;99902.25;;;0.58;100.00